CFF2 weather

Christina Basin Airport
Christina Basin, Alberta, Canada

Public forecast

Using degrees Celsius for public forecast. Weather courtesy of forecast.io.

Closest aviation weather report (METAR) to Christina Basin Airport

Closest report is Fort McMurray Airport, 66.9 nm (124.0 km) NNE. Retrieved 2020/08/08 20:00 UTC (16 minutes ago):

CYMM 082000Z AUTO 26011G17KT 9SM BKN190 OVC220 18/11 A2962 RMK SLP037 DENSITY ALT 2100FT

Closest aviation forecast (TAF) to Christina Basin Airport

Closest forecast is Fort McMurray Airport, 66.9 nm (124.0 km) NNE. Retrieved 2020/08/08 19:42 UTC (34 minutes ago):

TAF CYMM 081838Z 0819/0907 26012KT P6SM BKN220 FM082000 27012KT P6SM SCT050 TEMPO 0821/0824 P6SM -SHRA BKN050 FM090200 27008KT P6SM BKN040 RMK FCST BASED ON AUTO OBS NXT FCST BY 090100Z